sensor_id;sensor_type;location;lat;lon;timestamp;temperature;humidity
25450;DHT22;13371;52.080;5.624;2023-02-03T00:01:13;10.80;99.90
25450;DHT22;13371;52.080;5.624;2023-02-03T00:03:38;10.80;99.90
25450;DHT22;13371;52.080;5.624;2023-02-03T00:06:05;10.40;99.90
25450;DHT22;13371;52.080;5.624;2023-02-03T00:08:31;10.40;99.90
25450;DHT22;13371;52.080;5.624;2023-02-03T00:10:57;10.40;99.90
25450;DHT22;13371;52.080;5.624;2023-02-03T00:13:23;10.60;99.90
25450;DHT22;13371;52.080;5.624;2023-02-03T00:15:51;10.40;99.90
25450;DHT22;13371;52.080;5.624;2023-02-03T00:18:16;10.60;99.90
25450;DHT22;13371;52.080;5.624;2023-02-03T00:20:42;10.70;99.90
25450;DHT22;13371;52.080;5.624;2023-02-03T00:23:09;10.40;99.90
25450;DHT22;13371;52.080;5.624;2023-02-03T00:25:35;10.40;99.90
25450;DHT22;13371;52.080;5.624;2023-02-03T00:28:02;10.60;99.90
25450;DHT22;13371;52.080;5.624;2023-02-03T00:30:28;10.50;99.90
25450;DHT22;13371;52.080;5.624;2023-02-03T00:32:53;10.60;99.90
25450;DHT22;13371;52.080;5.624;2023-02-03T00:35:19;10.50;99.90
25450;DHT22;13371;52.080;5.624;2023-02-03T00:37:51;10.60;99.90
25450;DHT22;13371;52.080;5.624;2023-02-03T00:40:18;10.50;99.90
25450;DHT22;13371;52.080;5.624;2023-02-03T00:42:43;10.40;99.90
25450;DHT22;13371;52.080;5.624;2023-02-03T00:45:09;10.40;99.90
25450;DHT22;13371;52.080;5.624;2023-02-03T00:47:34;10.40;99.90
25450;DHT22;13371;52.080;5.624;2023-02-03T00:50:00;10.60;99.90
25450;DHT22;13371;52.080;5.624;2023-02-03T00:52:26;10.70;99.90
25450;DHT22;13371;52.080;5.624;2023-02-03T00:54:51;10.40;99.90
25450;DHT22;13371;52.080;5.624;2023-02-03T00:57:17;10.10;99.90
25450;DHT22;13371;52.080;5.624;2023-02-03T00:59:42;10.30;99.90
25450;DHT22;13371;52.080;5.624;2023-02-03T01:02:08;10.60;99.90
25450;DHT22;13371;52.080;5.624;2023-02-03T01:04:33;10.50;99.90
25450;DHT22;13371;52.080;5.624;2023-02-03T01:06:59;10.40;99.90
25450;DHT22;13371;52.080;5.624;2023-02-03T01:09:25;10.50;99.90
25450;DHT22;13371;52.080;5.624;2023-02-03T01:11:50;10.50;99.90
25450;DHT22;13371;52.080;5.624;2023-02-03T01:14:16;10.50;99.90
25450;DHT22;13371;52.080;5.624;2023-02-03T01:16:42;10.60;99.90
25450;DHT22;13371;52.080;5.624;2023-02-03T01:19:07;10.40;99.90
25450;DHT22;13371;52.080;5.624;2023-02-03T01:21:33;10.50;99.90
25450;DHT22;13371;52.080;5.624;2023-02-03T01:24:00;10.70;99.90
25450;DHT22;13371;52.080;5.624;2023-02-03T01:26:26;10.60;99.90
25450;DHT22;13371;52.080;5.624;2023-02-03T01:28:57;10.50;99.90
25450;DHT22;13371;52.080;5.624;2023-02-03T01:31:28;10.50;99.90
25450;DHT22;13371;52.080;5.624;2023-02-03T01:33:54;10.40;99.90
25450;DHT22;13371;52.080;5.624;2023-02-03T01:36:22;10.60;99.90
25450;DHT22;13371;52.080;5.624;2023-02-03T01:38:48;10.50;99.90
25450;DHT22;13371;52.080;5.624;2023-02-03T01:41:17;10.50;99.90
25450;DHT22;13371;52.080;5.624;2023-02-03T01:43:49;10.60;99.90
25450;DHT22;13371;52.080;5.624;2023-02-03T01:46:17;10.60;99.90
25450;DHT22;13371;52.080;5.624;2023-02-03T01:48:47;10.50;99.90
25450;DHT22;13371;52.080;5.624;2023-02-03T01:51:13;10.40;99.90
25450;DHT22;13371;52.080;5.624;2023-02-03T01:53:39;10.50;99.90
25450;DHT22;13371;52.080;5.624;2023-02-03T01:56:05;10.60;99.90
25450;DHT22;13371;52.080;5.624;2023-02-03T01:58:36;10.60;99.90
25450;DHT22;13371;52.080;5.624;2023-02-03T02:01:02;10.60;99.90
25450;DHT22;13371;52.080;5.624;2023-02-03T02:03:39;10.50;99.90
25450;DHT22;13371;52.080;5.624;2023-02-03T02:06:10;10.70;99.90
25450;DHT22;13371;52.080;5.624;2023-02-03T02:08:37;10.60;99.90
25450;DHT22;13371;52.080;5.624;2023-02-03T02:11:05;10.60;99.90
25450;DHT22;13371;52.080;5.624;2023-02-03T02:13:32;10.60;99.90
25450;DHT22;13371;52.080;5.624;2023-02-03T02:24:26;10.80;99.90
25450;DHT22;13371;52.080;5.624;2023-02-03T02:27:11;10.80;99.90
25450;DHT22;13371;52.080;5.624;2023-02-03T02:34:53;10.80;99.90
25450;DHT22;13371;52.080;5.624;2023-02-03T02:37:33;11.10;99.90
25450;DHT22;13371;52.080;5.624;2023-02-03T02:43:11;10.70;99.90
25450;DHT22;13371;52.080;5.624;2023-02-03T02:51:00;11.00;99.90
25450;DHT22;13371;52.080;5.624;2023-02-03T02:53:31;11.10;99.90
25450;DHT22;13371;52.080;5.624;2023-02-03T02:55:59;10.90;99.90
25450;DHT22;13371;52.080;5.624;2023-02-03T02:58:28;10.90;99.90
25450;DHT22;13371;52.080;5.624;2023-02-03T03:00:54;10.80;99.90
25450;DHT22;13371;52.080;5.624;2023-02-03T03:03:22;10.80;99.90
25450;DHT22;13371;52.080;5.624;2023-02-03T03:05:53;10.90;99.90
25450;DHT22;13371;52.080;5.624;2023-02-03T03:08:24;11.00;99.90
25450;DHT22;13371;52.080;5.624;2023-02-03T03:10:51;11.00;99.90
25450;DHT22;13371;52.080;5.624;2023-02-03T03:13:23;10.90;99.90
25450;DHT22;13371;52.080;5.624;2023-02-03T03:15:51;10.90;99.90
25450;DHT22;13371;52.080;5.624;2023-02-03T03:18:26;11.10;99.90
25450;DHT22;13371;52.080;5.624;2023-02-03T03:20:55;11.10;99.90
25450;DHT22;13371;52.080;5.624;2023-02-03T03:23:28;10.90;99.90
25450;DHT22;13371;52.080;5.624;2023-02-03T03:26:20;11.00;99.90
25450;DHT22;13371;52.080;5.624;2023-02-03T03:28:50;11.00;99.90
25450;DHT22;13371;52.080;5.624;2023-02-03T03:31:18;10.90;99.90
25450;DHT22;13371;52.080;5.624;2023-02-03T03:33:45;10.80;99.90
25450;DHT22;13371;52.080;5.624;2023-02-03T03:36:25;10.80;99.90
25450;DHT22;13371;52.080;5.624;2023-02-03T03:42:02;11.10;99.90
25450;DHT22;13371;52.080;5.624;2023-02-03T03:44:35;11.10;99.90
25450;DHT22;13371;52.080;5.624;2023-02-03T03:47:22;11.20;99.90
25450;DHT22;13371;52.080;5.624;2023-02-03T03:49:49;11.30;99.90
25450;DHT22;13371;52.080;5.624;2023-02-03T03:52:20;11.20;99.90
25450;DHT22;13371;52.080;5.624;2023-02-03T03:54:49;11.40;99.90
25450;DHT22;13371;52.080;5.624;2023-02-03T03:57:17;11.40;99.90
25450;DHT22;13371;52.080;5.624;2023-02-03T03:59:47;11.30;99.90
25450;DHT22;13371;52.080;5.624;2023-02-03T04:02:15;11.20;99.90
25450;DHT22;13371;52.080;5.624;2023-02-03T04:04:42;11.20;99.90
25450;DHT22;13371;52.080;5.624;2023-02-03T04:07:08;11.30;99.90
25450;DHT22;13371;52.080;5.624;2023-02-03T04:09:34;11.10;99.90
25450;DHT22;13371;52.080;5.624;2023-02-03T04:12:03;11.10;99.90
25450;DHT22;13371;52.080;5.624;2023-02-03T04:14:35;11.20;99.90
25450;DHT22;13371;52.080;5.624;2023-02-03T04:17:03;11.10;99.90
25450;DHT22;13371;52.080;5.624;2023-02-03T04:19:29;10.90;99.90
25450;DHT22;13371;52.080;5.624;2023-02-03T04:21:54;10.90;99.90
25450;DHT22;13371;52.080;5.624;2023-02-03T04:24:20;11.00;99.90
25450;DHT22;13371;52.080;5.624;2023-02-03T04:26:46;11.20;99.90
25450;DHT22;13371;52.080;5.624;2023-02-03T04:29:11;10.90;99.90
25450;DHT22;13371;52.080;5.624;2023-02-03T04:31:37;10.90;99.90
25450;DHT22;13371;52.080;5.624;2023-02-03T04:34:03;11.10;99.90
25450;DHT22;13371;52.080;5.624;2023-02-03T04:36:29;11.10;99.90
25450;DHT22;13371;52.080;5.624;2023-02-03T04:38:54;11.10;99.90
25450;DHT22;13371;52.080;5.624;2023-02-03T04:41:20;11.10;99.90
25450;DHT22;13371;52.080;5.624;2023-02-03T04:43:46;11.00;99.90
25450;DHT22;13371;52.080;5.624;2023-02-03T04:46:11;10.90;99.90
25450;DHT22;13371;52.080;5.624;2023-02-03T04:48:37;10.90;99.90
25450;DHT22;13371;52.080;5.624;2023-02-03T04:51:07;10.70;99.90
25450;DHT22;13371;52.080;5.624;2023-02-03T04:53:33;10.70;99.90
25450;DHT22;13371;52.080;5.624;2023-02-03T04:55:59;10.60;99.90
25450;DHT22;13371;52.080;5.624;2023-02-03T04:58:25;10.40;99.90
25450;DHT22;13371;52.080;5.624;2023-02-03T05:00:52;10.70;99.90
25450;DHT22;13371;52.080;5.624;2023-02-03T05:03:17;10.80;99.90
25450;DHT22;13371;52.080;5.624;2023-02-03T05:05:43;11.00;99.90
25450;DHT22;13371;52.080;5.624;2023-02-03T05:08:09;10.80;99.90
25450;DHT22;13371;52.080;5.624;2023-02-03T05:10:34;10.90;99.90
25450;DHT22;13371;52.080;5.624;2023-02-03T05:13:00;10.90;99.90
25450;DHT22;13371;52.080;5.624;2023-02-03T05:15:25;10.90;99.90
25450;DHT22;13371;52.080;5.624;2023-02-03T05:17:54;10.90;99.90
25450;DHT22;13371;52.080;5.624;2023-02-03T05:20:20;11.10;99.90
25450;DHT22;13371;52.080;5.624;2023-02-03T05:22:46;11.10;99.90
25450;DHT22;13371;52.080;5.624;2023-02-03T05:25:12;11.20;99.90
25450;DHT22;13371;52.080;5.624;2023-02-03T05:27:41;10.90;99.90
25450;DHT22;13371;52.080;5.624;2023-02-03T05:30:08;10.60;99.90
25450;DHT22;13371;52.080;5.624;2023-02-03T05:32:34;10.60;99.90
25450;DHT22;13371;52.080;5.624;2023-02-03T05:34:59;10.80;99.90
25450;DHT22;13371;52.080;5.624;2023-02-03T05:37:25;11.00;99.90
25450;DHT22;13371;52.080;5.624;2023-02-03T05:39:50;10.90;99.90
25450;DHT22;13371;52.080;5.624;2023-02-03T05:42:16;11.10;99.90
25450;DHT22;13371;52.080;5.624;2023-02-03T05:44:41;11.00;99.90
25450;DHT22;13371;52.080;5.624;2023-02-03T05:47:07;11.00;99.90
25450;DHT22;13371;52.080;5.624;2023-02-03T05:49:33;10.90;99.90
25450;DHT22;13371;52.080;5.624;2023-02-03T05:51:58;10.70;99.90
25450;DHT22;13371;52.080;5.624;2023-02-03T05:54:24;10.80;99.90
25450;DHT22;13371;52.080;5.624;2023-02-03T05:56:50;10.80;99.90
25450;DHT22;13371;52.080;5.624;2023-02-03T05:59:16;10.80;99.90
25450;DHT22;13371;52.080;5.624;2023-02-03T06:01:42;11.00;99.90
25450;DHT22;13371;52.080;5.624;2023-02-03T06:04:08;11.00;99.90
25450;DHT22;13371;52.080;5.624;2023-02-03T06:06:33;11.10;99.90
25450;DHT22;13371;52.080;5.624;2023-02-03T06:09:00;11.10;99.90
25450;DHT22;13371;52.080;5.624;2023-02-03T06:11:26;11.00;99.90
25450;DHT22;13371;52.080;5.624;2023-02-03T06:13:53;11.00;99.90
25450;DHT22;13371;52.080;5.624;2023-02-03T06:16:19;11.20;99.90
25450;DHT22;13371;52.080;5.624;2023-02-03T06:18:44;11.10;99.90
25450;DHT22;13371;52.080;5.624;2023-02-03T06:21:10;11.20;99.90
25450;DHT22;13371;52.080;5.624;2023-02-03T06:23:36;11.20;99.90
25450;DHT22;13371;52.080;5.624;2023-02-03T06:26:01;11.30;99.90
25450;DHT22;13371;52.080;5.624;2023-02-03T06:28:27;11.00;99.90
25450;DHT22;13371;52.080;5.624;2023-02-03T06:30:52;11.20;99.90
25450;DHT22;13371;52.080;5.624;2023-02-03T06:33:21;11.00;99.90
25450;DHT22;13371;52.080;5.624;2023-02-03T06:35:47;10.80;99.90
25450;DHT22;13371;52.080;5.624;2023-02-03T06:38:12;11.00;99.90
25450;DHT22;13371;52.080;5.624;2023-02-03T06:40:41;10.90;99.90
25450;DHT22;13371;52.080;5.624;2023-02-03T06:43:06;11.10;99.90
25450;DHT22;13371;52.080;5.624;2023-02-03T06:45:32;11.30;99.90
25450;DHT22;13371;52.080;5.624;2023-02-03T06:47:58;11.30;99.90
25450;DHT22;13371;52.080;5.624;2023-02-03T06:50:24;11.20;99.90
25450;DHT22;13371;52.080;5.624;2023-02-03T06:52:49;11.00;99.90
25450;DHT22;13371;52.080;5.624;2023-02-03T06:55:15;11.10;99.90
25450;DHT22;13371;52.080;5.624;2023-02-03T06:57:45;11.30;99.90
25450;DHT22;13371;52.080;5.624;2023-02-03T07:00:12;11.50;99.90
25450;DHT22;13371;52.080;5.624;2023-02-03T07:02:38;11.30;99.90
25450;DHT22;13371;52.080;5.624;2023-02-03T07:05:07;11.30;99.90
25450;DHT22;13371;52.080;5.624;2023-02-03T07:07:32;11.10;99.90
25450;DHT22;13371;52.080;5.624;2023-02-03T07:09:59;11.00;99.90
25450;DHT22;13371;52.080;5.624;2023-02-03T07:12:25;10.90;99.90
25450;DHT22;13371;52.080;5.624;2023-02-03T07:14:50;11.10;99.90
25450;DHT22;13371;52.080;5.624;2023-02-03T07:17:16;11.20;99.90
25450;DHT22;13371;52.080;5.624;2023-02-03T07:19:41;11.40;99.90
25450;DHT22;13371;52.080;5.624;2023-02-03T07:22:11;11.50;99.90
25450;DHT22;13371;52.080;5.624;2023-02-03T07:24:37;11.30;99.90
25450;DHT22;13371;52.080;5.624;2023-02-03T07:27:02;11.50;99.90
25450;DHT22;13371;52.080;5.624;2023-02-03T07:29:28;11.50;99.90
25450;DHT22;13371;52.080;5.624;2023-02-03T07:31:53;11.40;99.90
25450;DHT22;13371;52.080;5.624;2023-02-03T07:34:19;11.40;99.90
25450;DHT22;13371;52.080;5.624;2023-02-03T07:36:45;11.40;99.90
25450;DHT22;13371;52.080;5.624;2023-02-03T07:39:10;11.30;99.90
25450;DHT22;13371;52.080;5.624;2023-02-03T07:41:36;11.40;99.90
25450;DHT22;13371;52.080;5.624;2023-02-03T07:44:02;11.50;99.90
25450;DHT22;13371;52.080;5.624;2023-02-03T07:46:27;11.40;99.90
25450;DHT22;13371;52.080;5.624;2023-02-03T07:48:53;11.10;99.90
25450;DHT22;13371;52.080;5.624;2023-02-03T07:51:19;11.20;99.90
25450;DHT22;13371;52.080;5.624;2023-02-03T07:53:45;11.00;99.90
25450;DHT22;13371;52.080;5.624;2023-02-03T07:56:11;11.00;99.90
25450;DHT22;13371;52.080;5.624;2023-02-03T07:58:37;11.20;99.90
25450;DHT22;13371;52.080;5.624;2023-02-03T08:01:10;11.40;99.90
25450;DHT22;13371;52.080;5.624;2023-02-03T08:03:36;11.40;99.90
25450;DHT22;13371;52.080;5.624;2023-02-03T08:06:02;11.40;99.90
25450;DHT22;13371;52.080;5.624;2023-02-03T08:08:27;11.50;99.90
25450;DHT22;13371;52.080;5.624;2023-02-03T08:10:56;11.60;99.90
25450;DHT22;13371;52.080;5.624;2023-02-03T08:13:22;11.50;99.90
25450;DHT22;13371;52.080;5.624;2023-02-03T08:15:47;11.50;99.90
25450;DHT22;13371;52.080;5.624;2023-02-03T08:18:13;11.80;99.90
25450;DHT22;13371;52.080;5.624;2023-02-03T08:20:38;11.80;99.90
25450;DHT22;13371;52.080;5.624;2023-02-03T08:23:05;11.70;99.90
25450;DHT22;13371;52.080;5.624;2023-02-03T08:25:31;11.70;99.90
25450;DHT22;13371;52.080;5.624;2023-02-03T08:27:56;11.80;99.90
25450;DHT22;13371;52.080;5.624;2023-02-03T08:30:22;11.70;99.90
25450;DHT22;13371;52.080;5.624;2023-02-03T08:32:48;11.50;99.90
25450;DHT22;13371;52.080;5.624;2023-02-03T08:35:14;11.50;99.90
25450;DHT22;13371;52.080;5.624;2023-02-03T08:37:39;11.50;99.90
25450;DHT22;13371;52.080;5.624;2023-02-03T08:40:06;11.70;99.90
25450;DHT22;13371;52.080;5.624;2023-02-03T08:42:32;11.70;99.90
25450;DHT22;13371;52.080;5.624;2023-02-03T08:45:00;11.50;99.90
25450;DHT22;13371;52.080;5.624;2023-02-03T08:47:25;11.60;99.90
25450;DHT22;13371;52.080;5.624;2023-02-03T08:49:52;11.50;99.90
25450;DHT22;13371;52.080;5.624;2023-02-03T08:52:17;11.20;99.90
25450;DHT22;13371;52.080;5.624;2023-02-03T08:54:43;11.30;99.90
25450;DHT22;13371;52.080;5.624;2023-02-03T08:57:09;11.50;99.90
25450;DHT22;13371;52.080;5.624;2023-02-03T08:59:37;11.60;99.90
25450;DHT22;13371;52.080;5.624;2023-02-03T09:02:05;11.60;99.90
25450;DHT22;13371;52.080;5.624;2023-02-03T09:04:32;11.50;99.90
25450;DHT22;13371;52.080;5.624;2023-02-03T09:06:58;11.60;99.90
25450;DHT22;13371;52.080;5.624;2023-02-03T09:09:25;11.70;99.90
25450;DHT22;13371;52.080;5.624;2023-02-03T09:11:52;11.50;99.90
25450;DHT22;13371;52.080;5.624;2023-02-03T09:14:19;11.60;99.90
25450;DHT22;13371;52.080;5.624;2023-02-03T09:16:45;11.60;99.90
25450;DHT22;13371;52.080;5.624;2023-02-03T09:19:11;11.70;99.90
25450;DHT22;13371;52.080;5.624;2023-02-03T09:21:37;11.90;99.90
25450;DHT22;13371;52.080;5.624;2023-02-03T09:24:03;12.10;99.90
25450;DHT22;13371;52.080;5.624;2023-02-03T09:26:29;12.00;99.90
25450;DHT22;13371;52.080;5.624;2023-02-03T09:28:55;12.00;99.90
25450;DHT22;13371;52.080;5.624;2023-02-03T09:31:20;12.10;99.90
25450;DHT22;13371;52.080;5.624;2023-02-03T09:33:46;12.10;99.90
25450;DHT22;13371;52.080;5.624;2023-02-03T09:36:12;12.10;99.90
25450;DHT22;13371;52.080;5.624;2023-02-03T09:38:38;11.90;99.90
25450;DHT22;13371;52.080;5.624;2023-02-03T09:43:46;11.80;99.90
25450;DHT22;13371;52.080;5.624;2023-02-03T09:46:21;11.80;99.90
25450;DHT22;13371;52.080;5.624;2023-02-03T09:48:53;11.80;99.90
25450;DHT22;13371;52.080;5.624;2023-02-03T09:51:30;11.70;99.90
25450;DHT22;13371;52.080;5.624;2023-02-03T09:54:01;11.80;99.90
25450;DHT22;13371;52.080;5.624;2023-02-03T09:56:32;12.00;99.90
25450;DHT22;13371;52.080;5.624;2023-02-03T09:58:59;12.10;99.90
25450;DHT22;13371;52.080;5.624;2023-02-03T10:01:37;12.20;99.90
25450;DHT22;13371;52.080;5.624;2023-02-03T10:04:33;12.20;99.90
25450;DHT22;13371;52.080;5.624;2023-02-03T10:07:45;12.10;99.90
25450;DHT22;13371;52.080;5.624;2023-02-03T10:13:04;12.00;99.90
25450;DHT22;13371;52.080;5.624;2023-02-03T10:18:25;12.10;99.90
25450;DHT22;13371;52.080;5.624;2023-02-03T10:20:55;11.90;99.90
25450;DHT22;13371;52.080;5.624;2023-02-03T10:23:28;11.90;99.90
25450;DHT22;13371;52.080;5.624;2023-02-03T10:25:55;11.80;99.90
25450;DHT22;13371;52.080;5.624;2023-02-03T10:28:29;11.90;99.90
25450;DHT22;13371;52.080;5.624;2023-02-03T10:31:01;11.80;99.90
25450;DHT22;13371;52.080;5.624;2023-02-03T10:33:30;12.00;99.90
25450;DHT22;13371;52.080;5.624;2023-02-03T10:36:09;12.10;99.90
25450;DHT22;13371;52.080;5.624;2023-02-03T10:41:30;12.00;99.90
25450;DHT22;13371;52.080;5.624;2023-02-03T10:43:57;12.10;99.90
25450;DHT22;13371;52.080;5.624;2023-02-03T10:46:31;11.90;99.90
25450;DHT22;13371;52.080;5.624;2023-02-03T10:48:58;11.90;99.90
25450;DHT22;13371;52.080;5.624;2023-02-03T10:51:34;11.90;99.90
25450;DHT22;13371;52.080;5.624;2023-02-03T10:54:00;12.10;99.90
25450;DHT22;13371;52.080;5.624;2023-02-03T10:56:34;12.00;99.90
25450;DHT22;13371;52.080;5.624;2023-02-03T10:59:01;12.00;99.90
25450;DHT22;13371;52.080;5.624;2023-02-03T11:04:06;12.20;99.90
25450;DHT22;13371;52.080;5.624;2023-02-03T11:06:33;12.20;99.90
25450;DHT22;13371;52.080;5.624;2023-02-03T11:08:59;12.10;99.90
25450;DHT22;13371;52.080;5.624;2023-02-03T11:11:27;12.00;99.90
25450;DHT22;13371;52.080;5.624;2023-02-03T11:16:29;12.00;99.90
25450;DHT22;13371;52.080;5.624;2023-02-03T11:24:19;12.10;99.90
25450;DHT22;13371;52.080;5.624;2023-02-03T11:29:29;12.10;99.90
25450;DHT22;13371;52.080;5.624;2023-02-03T11:31:57;12.00;99.90
25450;DHT22;13371;52.080;5.624;2023-02-03T11:34:33;12.20;99.90
25450;DHT22;13371;52.080;5.624;2023-02-03T11:42:37;12.20;99.90
25450;DHT22;13371;52.080;5.624;2023-02-03T11:48:16;12.10;99.90
25450;DHT22;13371;52.080;5.624;2023-02-03T12:04:51;12.20;99.90
25450;DHT22;13371;52.080;5.624;2023-02-03T12:10:32;12.00;99.90
25450;DHT22;13371;52.080;5.624;2023-02-03T12:19:24;12.00;99.90
25450;DHT22;13371;52.080;5.624;2023-02-03T12:22:03;12.10;99.90
25450;DHT22;13371;52.080;5.624;2023-02-03T12:27:40;12.10;99.90
25450;DHT22;13371;52.080;5.624;2023-02-03T12:30:21;12.10;99.90
25450;DHT22;13371;52.080;5.624;2023-02-03T12:32:52;12.20;99.90
25450;DHT22;13371;52.080;5.624;2023-02-03T12:35:32;12.10;99.90
25450;DHT22;13371;52.080;5.624;2023-02-03T12:38:16;12.00;99.90
25450;DHT22;13371;52.080;5.624;2023-02-03T12:40:53;12.00;99.90
25450;DHT22;13371;52.080;5.624;2023-02-03T12:43:38;11.90;99.90
25450;DHT22;13371;52.080;5.624;2023-02-03T12:56:50;11.90;99.90
25450;DHT22;13371;52.080;5.624;2023-02-03T12:59:22;12.00;99.90
25450;DHT22;13371;52.080;5.624;2023-02-03T13:02:00;12.00;99.90
25450;DHT22;13371;52.080;5.624;2023-02-03T13:04:39;11.90;99.90
25450;DHT22;13371;52.080;5.624;2023-02-03T13:07:25;12.00;99.90
25450;DHT22;13371;52.080;5.624;2023-02-03T13:10:37;12.00;99.90
25450;DHT22;13371;52.080;5.624;2023-02-03T13:13:10;11.90;99.90
25450;DHT22;13371;52.080;5.624;2023-02-03T13:15:42;11.90;99.90
25450;DHT22;13371;52.080;5.624;2023-02-03T13:18:23;12.00;99.90
25450;DHT22;13371;52.080;5.624;2023-02-03T13:20:54;12.10;99.90
25450;DHT22;13371;52.080;5.624;2023-02-03T13:23:20;12.10;99.90
25450;DHT22;13371;52.080;5.624;2023-02-03T13:26:00;12.20;99.90
25450;DHT22;13371;52.080;5.624;2023-02-03T13:44:12;12.00;99.90
25450;DHT22;13371;52.080;5.624;2023-02-03T13:46:40;12.00;99.90
25450;DHT22;13371;52.080;5.624;2023-02-03T13:49:06;12.10;99.90
25450;DHT22;13371;52.080;5.624;2023-02-03T13:51:42;12.10;99.90
25450;DHT22;13371;52.080;5.624;2023-02-03T13:56:59;11.90;99.90
25450;DHT22;13371;52.080;5.624;2023-02-03T13:59:40;11.90;99.90
25450;DHT22;13371;52.080;5.624;2023-02-03T14:07:35;11.90;99.90
25450;DHT22;13371;52.080;5.624;2023-02-03T14:21:16;11.80;99.90
25450;DHT22;13371;52.080;5.624;2023-02-03T14:23:51;11.70;99.90
25450;DHT22;13371;52.080;5.624;2023-02-03T14:26:21;11.90;99.90
25450;DHT22;13371;52.080;5.624;2023-02-03T14:28:48;12.00;99.90
25450;DHT22;13371;52.080;5.624;2023-02-03T14:31:21;11.70;99.90
25450;DHT22;13371;52.080;5.624;2023-02-03T14:36:32;11.80;99.90
25450;DHT22;13371;52.080;5.624;2023-02-03T14:41:51;12.00;99.90
25450;DHT22;13371;52.080;5.624;2023-02-03T14:44:48;11.90;99.90
25450;DHT22;13371;52.080;5.624;2023-02-03T14:47:46;12.00;99.90
25450;DHT22;13371;52.080;5.624;2023-02-03T14:58:57;12.00;99.90
25450;DHT22;13371;52.080;5.624;2023-02-03T15:06:45;12.00;99.90
25450;DHT22;13371;52.080;5.624;2023-02-03T15:09:32;12.00;99.90
25450;DHT22;13371;52.080;5.624;2023-02-03T15:12:00;12.00;99.90
25450;DHT22;13371;52.080;5.624;2023-02-03T15:14:28;12.00;99.90
25450;DHT22;13371;52.080;5.624;2023-02-03T15:17:01;12.00;99.90
25450;DHT22;13371;52.080;5.624;2023-02-03T15:19:47;11.90;99.90
25450;DHT22;13371;52.080;5.624;2023-02-03T15:22:27;11.90;99.90
25450;DHT22;13371;52.080;5.624;2023-02-03T15:24:57;11.90;99.90
25450;DHT22;13371;52.080;5.624;2023-02-03T15:27:28;12.00;99.90
25450;DHT22;13371;52.080;5.624;2023-02-03T15:29:54;12.00;99.90
25450;DHT22;13371;52.080;5.624;2023-02-03T15:32:33;11.90;99.90
25450;DHT22;13371;52.080;5.624;2023-02-03T15:35:04;11.80;99.90
25450;DHT22;13371;52.080;5.624;2023-02-03T15:37:42;11.90;99.90
25450;DHT22;13371;52.080;5.624;2023-02-03T15:40:21;12.00;99.90
25450;DHT22;13371;52.080;5.624;2023-02-03T15:42:57;12.00;99.90
25450;DHT22;13371;52.080;5.624;2023-02-03T15:45:41;12.00;99.90
25450;DHT22;13371;52.080;5.624;2023-02-03T15:51:17;12.30;99.90
25450;DHT22;13371;52.080;5.624;2023-02-03T15:56:42;12.00;99.90
25450;DHT22;13371;52.080;5.624;2023-02-03T15:59:37;11.80;99.90
25450;DHT22;13371;52.080;5.624;2023-02-03T16:02:15;12.00;99.90
25450;DHT22;13371;52.080;5.624;2023-02-03T16:04:41;11.60;99.90
25450;DHT22;13371;52.080;5.624;2023-02-03T16:07:24;11.80;99.90
25450;DHT22;13371;52.080;5.624;2023-02-03T16:09:57;11.70;99.90
25450;DHT22;13371;52.080;5.624;2023-02-03T16:12:30;11.90;99.90
25450;DHT22;13371;52.080;5.624;2023-02-03T16:14:58;12.00;99.90
25450;DHT22;13371;52.080;5.624;2023-02-03T16:22:38;12.50;99.60
25450;DHT22;13371;52.080;5.624;2023-02-03T16:25:28;12.50;99.60
25450;DHT22;13371;52.080;5.624;2023-02-03T16:27:55;12.70;99.50
25450;DHT22;13371;52.080;5.624;2023-02-03T16:33:46;12.60;99.90
25450;DHT22;13371;52.080;5.624;2023-02-03T16:36:30;12.50;99.90
25450;DHT22;13371;52.080;5.624;2023-02-03T16:39:15;12.40;99.90
25450;DHT22;13371;52.080;5.624;2023-02-03T16:41:59;12.30;99.90
25450;DHT22;13371;52.080;5.624;2023-02-03T16:44:44;12.20;99.90
25450;DHT22;13371;52.080;5.624;2023-02-03T16:47:30;12.20;99.90
25450;DHT22;13371;52.080;5.624;2023-02-03T16:50:20;12.00;99.90
25450;DHT22;13371;52.080;5.624;2023-02-03T16:53:06;11.80;99.90
25450;DHT22;13371;52.080;5.624;2023-02-03T16:55:35;11.70;99.90
25450;DHT22;13371;52.080;5.624;2023-02-03T16:58:01;11.70;99.90
25450;DHT22;13371;52.080;5.624;2023-02-03T17:00:27;11.60;99.90
25450;DHT22;13371;52.080;5.624;2023-02-03T17:02:52;11.60;99.90
25450;DHT22;13371;52.080;5.624;2023-02-03T17:05:18;11.50;99.90
25450;DHT22;13371;52.080;5.624;2023-02-03T17:07:44;11.60;99.90
25450;DHT22;13371;52.080;5.624;2023-02-03T17:10:10;11.60;99.90
25450;DHT22;13371;52.080;5.624;2023-02-03T17:12:36;11.50;99.90
25450;DHT22;13371;52.080;5.624;2023-02-03T17:15:04;11.70;99.90
25450;DHT22;13371;52.080;5.624;2023-02-03T17:17:30;11.60;99.90
25450;DHT22;13371;52.080;5.624;2023-02-03T17:19:55;11.70;99.90
25450;DHT22;13371;52.080;5.624;2023-02-03T17:22:24;11.50;99.90
25450;DHT22;13371;52.080;5.624;2023-02-03T17:24:50;11.60;99.90
25450;DHT22;13371;52.080;5.624;2023-02-03T17:27:16;11.80;99.90
25450;DHT22;13371;52.080;5.624;2023-02-03T17:29:41;11.70;99.90
25450;DHT22;13371;52.080;5.624;2023-02-03T17:32:07;11.70;99.90
25450;DHT22;13371;52.080;5.624;2023-02-03T17:34:34;11.70;99.90
25450;DHT22;13371;52.080;5.624;2023-02-03T17:36:59;11.40;99.90
25450;DHT22;13371;52.080;5.624;2023-02-03T17:39:25;11.30;99.90
25450;DHT22;13371;52.080;5.624;2023-02-03T17:41:51;11.20;99.90
25450;DHT22;13371;52.080;5.624;2023-02-03T17:44:17;11.30;99.90
25450;DHT22;13371;52.080;5.624;2023-02-03T17:46:43;11.50;99.90
25450;DHT22;13371;52.080;5.624;2023-02-03T17:49:09;11.40;99.90
25450;DHT22;13371;52.080;5.624;2023-02-03T17:51:34;11.50;99.90
25450;DHT22;13371;52.080;5.624;2023-02-03T17:54:00;11.40;99.90
25450;DHT22;13371;52.080;5.624;2023-02-03T17:56:32;11.30;99.90
25450;DHT22;13371;52.080;5.624;2023-02-03T17:59:00;11.30;99.90
25450;DHT22;13371;52.080;5.624;2023-02-03T18:01:26;11.40;99.90
25450;DHT22;13371;52.080;5.624;2023-02-03T18:03:58;11.30;99.90
25450;DHT22;13371;52.080;5.624;2023-02-03T18:06:26;11.30;99.90
25450;DHT22;13371;52.080;5.624;2023-02-03T18:08:52;11.30;99.90
25450;DHT22;13371;52.080;5.624;2023-02-03T18:11:24;11.20;99.90
25450;DHT22;13371;52.080;5.624;2023-02-03T18:13:52;11.20;99.90
25450;DHT22;13371;52.080;5.624;2023-02-03T18:16:21;11.20;99.90
25450;DHT22;13371;52.080;5.624;2023-02-03T18:18:50;11.40;99.90
25450;DHT22;13371;52.080;5.624;2023-02-03T18:21:17;11.50;99.90
25450;DHT22;13371;52.080;5.624;2023-02-03T18:23:44;11.40;99.90
25450;DHT22;13371;52.080;5.624;2023-02-03T18:26:11;11.10;99.90
25450;DHT22;13371;52.080;5.624;2023-02-03T18:28:38;11.10;99.90